In Rescue
 
Open Full Screen Window  High Contrast Mode
Wind Gusting 00 knots
06
October 25, 2021 2:05 PM CDT
Weather Information
Wind Direction
  080 °
Wind Speed
  06 kt (7 mph)
Wind Gust
  00 kt (0 mph)
Altimeter
30.14 in
Visibility
10 SM
Temperature
11° C
52° F
Dewpoint
-02° C
28° F
Humidity
41%
1hr Rain Fall
00.00 in.
24hr Rain Fall
00.00 in.
Sky Condition
Clear
VFR

METAR KMGG 251905Z AUTO 08006KT 10SM CLR 11/M02 A3014 RMK AO2 T01061016

FAA Disclaimer: The data displayed is for advisory purposes only and is not to be used for flight planning or operations.